Latest Coastal Weather Observations for Portland Airport

IDV60701

Issued at 2:25 pm EST Monday 22 September 2014 (issued every 10 minutes, with the page automatically refreshed every 10 minutes)

About coastal observations | Map of coastal stations | Coastal observations for VIC | Marine services | Other Formats
Station Details ID: 090171 Name: CASHMORE AIRPORT Lat: -38.31 Lon: 141.47 Height: 80.9 m
Data from the previous 72 hours. | See also: Recent months at Portland Airport
Date/Time
EST
Temp

°C
Wind Pressure Rain
since 9am
mm
Weather Cloud Vis
km
Sea
Height
m
Swell
Dir
 
Speed
knots
Gust
knots
hPa Trend Height
m
Period
s
Dir
22/02:00pm 21.5 NNW 7 12 1025.0 - 0.0 - - 10 - - - -
22/01:30pm 21.2 N 7 12 1025.4 - 0.0 - - 10 - - - -
22/01:00pm 21.3 NNW 7 11 1025.5 - 0.0 - - 10 - - - -
22/12:30pm 20.6 N 8 11 1025.9 - 0.0 - - 10 - - - -
22/12:00pm 20.4 NNW 10 14 1026.4 - 0.0 - - 10 - - - -
22/11:30am 19.8 N 8 11 1026.7 - 0.0 - - 10 - - - -
22/11:00am 18.3 N 8 11 1027.1 - 0.0 - - 10 - - - -
22/10:30am 17.6 N 9 11 1027.4 - 0.0 - - 10 - - - -
22/10:00am 15.9 N 9 12 1027.6 - 0.0 - - 10 - - - -
22/09:30am 13.7 N 8 11 1027.6 - 0.0 - - 10 - - - -
22/09:00am 12.4 N 7 9 1027.9 - 0.2 - - 10 - - - -
22/08:30am 11.0 N 7 10 1028.0 - 0.2 - - 10 - - - -
22/08:00am 9.3 N 6 8 1027.9 - 0.2 - - 10 - - - -
22/07:30am 6.9 N 7 9 1027.6 - 0.2 - - 10 - - - -
22/07:00am 5.4 N 8 10 1027.5 - 0.2 - - 10 - - - -
22/06:30am 5.1 N 10 12 1027.3 - 0.2 - - 10 - - - -
22/06:00am 4.3 N 6 8 1027.1 - 0.0 - - 10 - - - -
22/05:30am 4.9 N 7 8 1027.0 - 0.0 - - 10 - - - -
22/05:00am 5.3 N 6 7 1027.1 - 0.0 - - 10 - - - -
22/04:30am 5.3 N 7 7 1026.9 - 0.0 - - 10 - - - -
22/04:00am 5.7 N 7 8 1026.8 - 0.0 - - 10 - - - -
22/03:30am 5.8 N 7 9 1027.1 - 0.0 - - 10 - - - -
22/03:00am 5.5 N 6 7 1027.3 - 0.0 - - 10 - - - -
22/02:30am 6.0 N 6 7 1027.6 - 0.0 - - 10 - - - -
22/02:00am 5.5 N 5 6 1028.1 - 0.0 - - 10 - - - -
22/01:30am 4.9 NNE 4 5 1028.3 - 0.0 - - 10 - - - -
22/01:00am 5.7 N 5 7 1028.5 - 0.0 - - 10 - - - -
22/12:30am 6.3 NE 6 7 1028.5 - 0.0 - - 10 - - - -
22/12:00am 6.3 NE 5 6 1028.9 - 0.0 - - 10 - - - -
 
Date/Time
EST
Temp

°C
Wind Pressure Rain
since 9am
mm
Weather Cloud Vis
km
Sea
Height
m
Swell
Dir
 
Speed
knots
Gust
knots
hPa Trend Height
m
Period
s
Dir
21/11:30pm 6.7 NE 5 6 1029.2 - 0.0 - - 10 - - - -
21/11:00pm 7.3 NE 5 6 1029.5 - 0.0 - - 10 - - - -
21/10:30pm 7.8 NNE 6 8 1029.5 - 0.0 - - 10 - - - -
21/10:00pm 7.9 NNE 6 7 1029.7 - 0.0 - - 10 - - - -
21/09:30pm 8.1 NE 5 6 1029.9 - 0.0 - - 10 - - - -
21/09:00pm 9.2 E 6 8 1030.0 - 0.0 - - 10 - - - -
21/08:30pm 9.4 E 6 9 1030.0 - 0.0 - - 10 - - - -
21/08:00pm 9.1 E 6 8 1030.1 - 0.0 - - 10 - - - -
21/07:30pm 9.1 E 6 8 1029.8 - 0.0 - - 10 - - - -
21/07:00pm 9.6 E 6 8 1029.6 - 0.0 - - 10 - - - -
21/06:30pm 10.5 E 6 7 1029.5 - 0.0 - - 10 - - - -
21/06:00pm 11.8 E 7 10 1029.5 - 0.0 - - 10 - - - -
21/05:30pm 12.7 E 7 11 1029.4 - 0.0 - - 10 - - - -
21/05:00pm 13.3 E 7 10 1029.3 - 0.0 - - 10 - - - -
21/04:30pm 13.7 E 7 11 1029.3 - 0.0 - - 10 - - - -
21/04:00pm 14.3 E 7 11 1029.3 - 0.0 - - 10 - - - -
21/03:30pm 14.2 E 7 12 1029.7 - 0.0 - - 10 - - - -
21/03:00pm 14.9 E 7 11 1030.1 - 0.0 - - 10 - - - -
21/02:30pm 14.2 E 6 10 1030.6 - 0.0 - - 10 - - - -
21/02:00pm 14.0 E 6 9 1030.9 - 0.0 - - 10 - - - -
21/01:30pm 13.7 ENE 6 11 1031.1 - 0.0 - - 10 - - - -
21/01:00pm 13.2 E 7 12 1031.6 - 0.0 - Partly cloudy 10 - - - -
21/12:30pm 13.9 E 7 11 1032.0 - 0.0 - Partly cloudy 10 - - - -
21/12:00pm 13.6 E 7 11 1032.3 - 0.0 - - 10 - - - -
21/11:30am 14.0 E 7 11 1032.7 - 0.0 - Cloudy 10 - - - -
21/11:00am 13.3 E 7 11 1032.9 - 0.0 - Cloudy 10 - - - -
21/10:30am 12.8 E 5 8 1033.0 - 0.0 - Partly cloudy 10 - - - -
21/10:00am 13.0 E 6 8 1033.0 - 0.0 - Partly cloudy 10 - - - -
21/09:30am 12.2 NE 4 6 1032.8 - 0.0 - Partly cloudy 10 - - - -
21/09:00am 11.9 NNE 2 4 1032.8 - 0.0 - - 10 - - - -
21/08:30am 9.5 NNE 4 5 1032.5 - 0.0 - - 10 - - - -
21/08:00am 7.1 CALM 0 0 1032.1 - 0.0 - Partly cloudy 10 - - - -
21/07:30am 4.1 CALM 0 0 1031.6 - 0.0 - Partly cloudy 10 - - - -
21/07:00am 3.8 N 4 5 1031.2 - 0.0 - - 10 - - - -
21/06:30am 1.9 N 3 5 1031.2 - 0.0 - Partly cloudy 10 - - - -
21/06:00am 0.9 N 3 4 1030.8 - 0.0 - - 10 - - - -
21/05:30am 1.5 N 3 5 1030.5 - 0.0 - - 10 - - - -
21/05:00am 2.7 N 4 5 1030.4 - 0.0 - - 10 - - - -
21/04:30am 2.7 NNE 4 5 1030.3 - 0.0 - Partly cloudy 10 - - - -
21/04:00am 3.3 NNE 3 4 1030.3 - 0.0 - Partly cloudy 10 - - - -
21/03:30am 2.2 NE 3 4 1030.4 - 0.0 - Partly cloudy 10 - - - -
21/03:00am 2.3 CALM 0 0 1030.5 - 0.0 - - 10 - - - -
21/02:30am 2.5 CALM 0 0 1030.8 - 0.0 - - 10 - - - -
21/02:00am 3.4 NE 3 3 1030.9 - 0.0 - - 10 - - - -
21/01:30am 2.6 CALM 0 3 1031.1 - 0.0 - - 10 - - - -
21/01:00am 3.2 E 2 4 1031.1 - 0.0 - - 10 - - - -
21/12:30am 2.7 CALM 0 0 1031.3 - 0.0 - - 10 - - - -
21/12:00am 2.4 CALM 0 0 1031.3 - 0.0 - - 10 - - - -
 
Date/Time
EST
Temp

°C
Wind Pressure Rain
since 9am
mm
Weather Cloud Vis
km
Sea
Height
m
Swell
Dir
 
Speed
knots
Gust
knots
hPa Trend Height
m
Period
s
Dir
20/11:30pm 2.9 CALM 0 0 1031.3 - 0.0 - - 10 - - - -
20/11:00pm 3.3 CALM 0 0 1031.3 - 0.0 - - 10 - - - -
20/10:30pm 3.2 CALM 0 0 1031.4 - 0.0 - - 10 - - - -
20/10:00pm 3.8 CALM 0 0 1031.4 - 0.0 - - 10 - - - -
20/09:30pm 4.2 CALM 0 0 1031.0 - 0.0 - - 10 - - - -
20/09:00pm 5.5 E 1 3 1030.8 - 0.0 - - 10 - - - -
20/08:30pm 7.1 E 4 6 1030.7 - 0.0 - - 10 - - - -
20/08:00pm 6.5 ESE 1 4 1030.8 - 0.0 - - 10 - - - -
20/07:30pm 7.6 ESE 3 3 1030.6 - 0.0 - - 10 - - - -
20/07:00pm 8.9 ESE 4 4 1030.4 - 0.0 - - 10 - - - -
20/06:30pm 10.5 SE 3 4 1030.2 - 0.0 - - 10 - - - -
20/06:00pm 12.0 SE 7 9 1030.0 - 0.0 - - 10 - - - -
20/05:30pm 12.8 SE 7 9 1029.8 - 0.0 - - 10 - - - -
20/05:00pm 13.0 SSE 8 13 1029.6 - 0.0 - - 10 - - - -
20/04:30pm 13.3 S 8 12 1029.4 - 0.0 - - 10 - - - -
20/04:00pm 13.7 S 8 12 1029.1 - 0.0 - - 10 - - - -
20/03:30pm 14.1 S 8 11 1028.9 - 0.0 - Partly cloudy 10 - - - -
20/03:00pm 14.0 S 8 11 1029.0 - 0.0 - Partly cloudy 10 - - - -
20/02:30pm 14.0 S 8 12 1028.9 - 0.0 - Partly cloudy 10 - - - -
20/02:00pm 13.9 S 7 12 1028.9 - 0.0 - Partly cloudy 10 - - - -
20/01:30pm 13.9 S 7 11 1028.8 - 0.0 - Cloudy 10 - - - -
20/01:00pm 13.6 SE 6 10 1028.8 - 0.0 - - 10 - - - -
20/12:30pm 13.6 SE 5 8 1029.1 - 0.0 - - 10 - - - -
20/12:00pm 14.1 E 5 9 1029.0 - 0.0 - Mostly cloudy 10 - - - -
20/11:30am 14.3 E 6 9 1029.0 - 0.0 - Cloudy 10 - - - -
20/11:00am 14.3 E 5 9 1029.0 - 0.0 - Cloudy 10 - - - -
20/10:30am 13.2 S 2 7 1029.2 - 0.0 - Partly cloudy 10 - - - -
20/10:00am 12.7 S 4 7 1029.4 - 0.0 - Cloudy 10 - - - -
20/09:30am 13.2 SSE 3 5 1029.5 - 0.0 - Partly cloudy 10 - - - -
20/09:00am 11.7 SSW 3 5 1029.4 - 0.0 - Mostly cloudy 10 - - - -
20/08:30am 10.2 CALM 0 0 1029.3 - 0.0 - Partly cloudy 10 - - - -
20/08:00am 8.7 CALM 0 0 1029.0 - 0.0 - - 10 - - - -
20/07:30am 5.8 CALM 0 4 1028.5 - 0.0 - Partly cloudy 10 - - - -
20/07:00am 2.4 CALM 0 0 1028.2 - 0.0 - Partly cloudy 10 - - - -
20/06:30am 2.1 CALM 0 0 1027.9 - 0.0 - - 10 - - - -
20/06:00am 2.7 CALM 0 0 1027.5 - 0.0 - Mostly clear 10 - - - -
20/05:30am 3.7 CALM 0 0 1027.1 - 0.0 - Partly cloudy 10 - - - -
20/05:00am 3.7 CALM 0 0 1026.8 - 0.0 - Cloudy 10 - - - -
20/04:30am 2.5 CALM 0 0 1026.5 - 0.0 - Partly cloudy 10 - - - -
20/04:00am 3.2 CALM 0 0 1026.2 - 0.0 - - 10 - - - -
20/03:30am 3.5 CALM 0 0 1026.1 - 0.0 - - 10 - - - -
20/03:00am 3.3 CALM 0 0 1026.0 - 0.0 - - 10 - - - -
20/02:30am 2.6 CALM 0 0 1026.1 - 0.0 - - 10 - - - -
20/02:00am 4.4 CALM 0 0 1026.1 - 0.0 - Partly cloudy 10 - - - -
20/01:30am 5.0 CALM 0 0 1026.5 - 0.0 - - 10 - - - -
20/01:00am 3.9 CALM 0 0 1026.6 - 0.0 - Partly cloudy 10 - - - -
20/12:30am 4.7 CALM 0 0 1026.5 - 0.0 - Partly cloudy 10 - - - -
20/12:00am 3.3 CALM 0 0 1026.6 - 0.0 - Cloudy 10 - - - -
 
Date/Time
EST
Temp

°C
Wind Pressure Rain
since 9am
mm
Weather Cloud Vis
km
Sea
Height
m
Swell
Dir
 
Speed
knots
Gust
knots
hPa Trend Height
m
Period
s
Dir
19/11:30pm 3.3 CALM 0 0 1026.5 - 0.0 - - 10 - - - -
19/11:00pm 3.0 CALM 0 0 1026.6 - 0.0 - - 10 - - - -
19/10:30pm 4.1 CALM 0 0 1026.6 - 0.0 - - 10 - - - -
19/10:00pm 4.8 CALM 0 0 1026.6 - 0.0 - - 10 - - - -
19/09:30pm 5.6 CALM 0 0 1026.9 - 0.0 - - 10 - - - -
19/09:00pm 6.2 CALM 0 0 1027.0 - 0.0 - - 10 - - - -
19/08:30pm 6.6 CALM 0 0 1026.9 - 0.0 - - 10 - - - -
19/08:00pm 6.9 SW 4 4 1026.8 - 0.0 - - 10 - - - -
19/07:30pm 7.1 SW 4 5 1026.5 - 0.0 - - 10 - - - -
19/07:00pm 8.6 SW 5 6 1026.4 - 0.0 - - 10 - - - -
19/06:30pm 10.0 SW 4 6 1026.2 - 0.0 - - 10 - - - -
19/06:00pm 11.7 SSW 6 8 1025.9 - 0.0 - Partly cloudy 10 - - - -
19/05:30pm 12.6 SW 7 10 1025.9 - 0.0 - Partly cloudy 10 - - - -
19/05:00pm 12.2 SSW 7 10 1025.6 - 0.0 - - 10 - - - -
19/04:30pm 12.9 SW 8 12 1025.5 - 0.0 - Partly cloudy 10 - - - -
19/04:00pm 13.4 SSW 9 12 1025.4 - 0.0 - Cloudy 10 - - - -
19/03:30pm 12.5 SSW 8 12 1025.5 - 0.0 - Partly cloudy 10 - - - -
19/03:00pm 13.0 SW 7 11 1025.5 - 0.0 - Cloudy 10 - - - -
19/02:30pm 12.6 W 9 12 1025.6 - 0.0 - Cloudy 10 - - - -

Other Formats:

Comma delimited format used in spreadsheet applications
http://www.bom.gov.au/fwo/IDV60701/IDV60701.94828.axf

JavaScript Object Notation format (JSON) in row-major order
http://www.bom.gov.au/fwo/IDV60701/IDV60701.94828.json